createdAt,value
2018-03-28T00:01:04.912Z,66.70
2018-03-28T00:03:32.587Z,66.60
2018-03-28T00:06:00.961Z,66.70
2018-03-28T00:08:28.626Z,66.60
2018-03-28T00:10:56.293Z,67.00
2018-03-28T00:13:24.628Z,67.60
2018-03-28T00:15:52.658Z,66.60
2018-03-28T00:18:20.989Z,66.70
2018-03-28T00:20:48.558Z,66.70
2018-03-28T00:23:16.138Z,66.60
2018-03-28T00:25:43.711Z,66.60
2018-03-28T00:28:12.046Z,66.70
2018-03-28T00:30:39.638Z,66.70
2018-03-28T00:33:07.203Z,66.60
2018-03-28T00:35:35.541Z,66.70
2018-03-28T00:38:03.103Z,66.70
2018-03-28T00:40:30.927Z,66.50
2018-03-28T00:42:58.512Z,66.60
2018-03-28T00:45:26.336Z,66.60
2018-03-28T00:47:54.198Z,66.60
2018-03-28T00:50:21.874Z,66.70
2018-03-28T00:52:50.240Z,66.80
2018-03-28T00:55:18.016Z,66.70
2018-03-28T00:57:45.880Z,66.70
2018-03-28T01:00:14.268Z,67.30
2018-03-28T01:02:42.600Z,66.60
2018-03-28T01:05:10.166Z,66.60
2018-03-28T01:07:37.767Z,66.50
2018-03-28T01:10:06.143Z,66.70
2018-03-28T01:12:34.528Z,66.70
2018-03-28T01:15:02.884Z,66.60
2018-03-28T01:17:30.454Z,66.60
2018-03-28T01:19:58.125Z,66.60
2018-03-28T01:22:26.506Z,66.70
2018-03-28T01:24:54.852Z,66.70
2018-03-28T01:27:23.644Z,66.60
2018-03-28T01:29:51.235Z,66.70
2018-03-28T01:32:19.618Z,66.60
2018-03-28T01:34:47.952Z,66.60
2018-03-28T01:37:15.557Z,66.60
2018-03-28T01:39:43.938Z,66.60
2018-03-28T01:42:12.269Z,66.50
2018-03-28T01:44:39.846Z,66.50
2018-03-28T01:47:07.425Z,66.50
2018-03-28T01:49:36.502Z,66.70
2018-03-28T01:52:04.077Z,66.70
2018-03-28T01:54:31.646Z,66.70
2018-03-28T01:56:59.219Z,66.70
2018-03-28T01:59:27.594Z,66.70
2018-03-28T02:01:55.252Z,66.70
2018-03-28T02:04:23.125Z,66.70
2018-03-28T02:06:51.544Z,67.50
2018-03-28T02:09:19.882Z,66.50
2018-03-28T02:11:47.463Z,66.50
2018-03-28T02:14:15.803Z,66.50
2018-03-28T02:16:43.378Z,66.50
2018-03-28T02:19:11.053Z,66.60
2018-03-28T02:21:39.396Z,66.70
2018-03-28T02:24:06.979Z,66.70
2018-03-28T02:26:34.652Z,66.60
2018-03-28T02:29:02.322Z,66.60
2018-03-28T02:31:29.906Z,66.60
2018-03-28T02:33:57.537Z,66.60
2018-03-28T02:36:25.884Z,66.60
2018-03-28T02:38:53.703Z,66.60
2018-03-28T02:41:21.279Z,66.50
2018-03-28T02:43:48.863Z,66.60
2018-03-28T02:46:16.474Z,66.60
2018-03-28T02:48:44.829Z,66.50
2018-03-28T02:51:12.419Z,66.50
2018-03-28T02:53:40.759Z,66.70
2018-03-28T02:56:08.341Z,66.60
2018-03-28T02:58:36.012Z,66.50
2018-03-28T03:01:04.396Z,66.60
2018-03-28T03:03:32.777Z,66.60
2018-03-28T03:06:01.155Z,66.50
2018-03-28T03:08:29.534Z,66.50
2018-03-28T03:10:57.914Z,66.50
2018-03-28T03:13:26.295Z,67.40
2018-03-28T03:15:54.647Z,66.60
2018-03-28T03:18:22.759Z,66.50
2018-03-28T03:20:51.178Z,66.60
2018-03-28T03:23:18.893Z,66.50
2018-03-28T03:25:47.239Z,66.50
2018-03-28T03:28:14.830Z,66.50
2018-03-28T03:30:42.417Z,66.50
2018-03-28T03:33:09.992Z,66.50
2018-03-28T03:35:37.569Z,66.60
2018-03-28T03:38:05.168Z,66.50
2018-03-28T03:40:32.840Z,66.50
2018-03-28T03:43:01.219Z,66.50
2018-03-28T03:45:29.657Z,66.60
2018-03-28T03:47:57.230Z,66.60
2018-03-28T03:50:24.816Z,66.60
2018-03-28T03:52:52.657Z,66.50
2018-03-28T03:55:20.255Z,67.40
2018-03-28T03:57:48.634Z,66.70
2018-03-28T04:00:16.976Z,66.60
2018-03-28T04:02:44.554Z,66.60
2018-03-28T04:05:12.132Z,66.60
2018-03-28T04:07:40.519Z,66.70
2018-03-28T04:10:08.931Z,66.60
2018-03-28T04:12:36.514Z,66.60
2018-03-28T04:15:04.140Z,66.50
2018-03-28T04:17:31.777Z,66.50
2018-03-28T04:20:00.112Z,66.60
2018-03-28T04:22:27.688Z,66.60
2018-03-28T04:24:55.257Z,66.50
2018-03-28T04:27:24.347Z,66.50
2018-03-28T04:29:52.179Z,66.50
2018-03-28T04:32:20.311Z,66.90
2018-03-28T04:34:47.895Z,66.50
2018-03-28T04:37:16.233Z,66.70
2018-03-28T04:39:44.573Z,66.80
2018-03-28T04:42:12.254Z,66.70
2018-03-28T04:44:39.984Z,66.60
2018-03-28T04:47:07.565Z,66.70
2018-03-28T04:49:35.184Z,66.60
2018-03-28T04:52:03.565Z,67.40
2018-03-28T04:54:33.082Z,67.00
2018-03-28T04:57:00.752Z,66.50
2018-03-28T04:59:28.406Z,66.50
2018-03-28T05:01:56.756Z,66.70
2018-03-28T05:04:25.045Z,66.50
2018-03-28T05:06:53.453Z,66.60
2018-03-28T05:09:21.097Z,66.50
2018-03-28T05:11:49.492Z,66.70
2018-03-28T05:14:17.140Z,66.60
2018-03-28T05:16:45.516Z,66.60
2018-03-28T05:19:14.210Z,66.50
2018-03-28T05:21:42.542Z,66.50
2018-03-28T05:24:10.274Z,66.50
2018-03-28T05:26:37.917Z,66.50
2018-03-28T05:29:06.288Z,66.60
2018-03-28T05:31:33.958Z,66.60
2018-03-28T05:34:02.301Z,66.70
2018-03-28T05:36:29.910Z,66.70
2018-03-28T05:38:59.455Z,66.60
2018-03-28T05:41:27.064Z,66.70
2018-03-28T05:43:54.727Z,66.50
2018-03-28T05:46:23.178Z,66.70
2018-03-28T05:48:51.204Z,66.70
2018-03-28T05:51:18.778Z,66.60
2018-03-28T05:53:46.415Z,66.50
2018-03-28T05:56:14.749Z,66.70
2018-03-28T05:58:42.414Z,66.70
2018-03-28T06:01:10.248Z,66.70
2018-03-28T06:03:37.829Z,66.70
2018-03-28T06:06:05.759Z,66.60
2018-03-28T06:08:35.640Z,66.70
2018-03-28T06:11:03.320Z,66.70
2018-03-28T06:13:33.140Z,66.70
2018-03-28T06:16:01.480Z,66.80
2018-03-28T06:18:29.103Z,66.70
2018-03-28T06:20:56.875Z,66.70
2018-03-28T06:23:25.757Z,66.70
2018-03-28T06:25:54.316Z,66.60
2018-03-28T06:28:25.773Z,66.60
2018-03-28T06:30:54.751Z,66.70
2018-03-28T06:33:22.790Z,66.70
2018-03-28T06:35:50.397Z,66.70
2018-03-28T06:38:18.733Z,66.70
2018-03-28T06:40:46.350Z,66.70
2018-03-28T06:43:14.689Z,66.60
2018-03-28T06:45:42.281Z,66.60
2018-03-28T06:48:10.623Z,66.70
2018-03-28T06:50:38.218Z,66.70
2018-03-28T06:53:06.560Z,66.70
2018-03-28T06:55:34.158Z,66.70
2018-03-28T06:58:02.556Z,66.70
2018-03-28T07:00:30.213Z,66.70
2018-03-28T07:02:58.581Z,66.70
2018-03-28T07:05:26.970Z,66.80
2018-03-28T07:07:55.337Z,66.70
2018-03-28T07:10:23.101Z,66.70
2018-03-28T07:12:50.673Z,66.70
2018-03-28T07:15:19.029Z,66.60
2018-03-28T07:17:46.611Z,66.60
2018-03-28T07:20:14.966Z,66.70
2018-03-28T07:22:44.041Z,66.70
2018-03-28T07:25:11.621Z,66.70
2018-03-28T07:27:39.222Z,66.70
2018-03-28T07:30:07.705Z,66.70
2018-03-28T07:32:35.321Z,66.70
2018-03-28T07:35:02.889Z,66.70
2018-03-28T07:37:30.462Z,66.70
2018-03-28T07:39:58.046Z,66.70
2018-03-28T07:42:26.394Z,66.80
2018-03-28T07:44:55.525Z,66.80
2018-03-28T07:47:23.178Z,66.70
2018-03-28T07:49:51.526Z,66.80
2018-03-28T07:52:19.098Z,66.80
2018-03-28T07:54:46.766Z,66.80
2018-03-28T07:57:14.342Z,66.70
2018-03-28T07:59:42.708Z,66.80
2018-03-28T08:02:10.283Z,66.70
2018-03-28T08:04:38.972Z,66.70
2018-03-28T08:07:08.157Z,66.80
2018-03-28T08:09:35.866Z,66.80
2018-03-28T08:12:04.239Z,66.70
2018-03-28T08:14:31.985Z,66.70
2018-03-28T08:17:00.466Z,66.70
2018-03-28T08:19:28.802Z,66.70
2018-03-28T08:21:56.370Z,66.70
2018-03-28T08:24:24.160Z,66.80
2018-03-28T08:26:52.830Z,66.80
2018-03-28T08:29:20.400Z,66.80
2018-03-28T08:31:48.083Z,66.70
2018-03-28T08:34:16.424Z,66.70
2018-03-28T08:36:43.996Z,66.70
2018-03-28T08:39:11.716Z,66.60
2018-03-28T08:41:39.336Z,66.60
2018-03-28T08:44:07.720Z,66.60
2018-03-28T08:46:36.089Z,66.50
2018-03-28T08:49:03.669Z,66.40
2018-03-28T08:51:32.060Z,66.50
2018-03-28T08:53:59.713Z,66.40
2018-03-28T08:56:27.375Z,66.50
2018-03-28T08:58:55.745Z,66.50
2018-03-28T09:01:24.321Z,66.50
2018-03-28T09:03:52.729Z,66.40
2018-03-28T09:06:20.362Z,66.50
2018-03-28T09:08:48.038Z,66.50
2018-03-28T09:11:16.410Z,66.50
2018-03-28T09:13:44.826Z,66.50
2018-03-28T09:16:12.401Z,66.50
2018-03-28T09:18:40.008Z,66.50
2018-03-28T09:21:07.604Z,66.60
2018-03-28T09:23:35.176Z,66.90
2018-03-28T09:26:02.845Z,66.60
2018-03-28T09:28:30.483Z,66.60
2018-03-28T09:30:58.137Z,66.60
2018-03-28T09:33:26.513Z,66.70
2018-03-28T09:35:54.897Z,66.70
2018-03-28T09:38:23.268Z,66.80
2018-03-28T09:40:51.621Z,66.80
2018-03-28T09:43:20.592Z,66.70
2018-03-28T09:45:48.171Z,66.80
2018-03-28T09:48:15.763Z,66.70
2018-03-28T09:50:44.124Z,66.80
2018-03-28T09:53:11.690Z,66.80
2018-03-28T09:55:39.271Z,66.80
2018-03-28T09:58:07.661Z,66.80
2018-03-28T10:00:35.232Z,66.70
2018-03-28T10:03:08.477Z,66.80
2018-03-28T10:05:38.982Z,66.70
2018-03-28T10:08:06.590Z,66.80
2018-03-28T10:10:34.930Z,66.80
2018-03-28T10:13:02.526Z,66.80
2018-03-28T10:15:30.202Z,66.80
2018-03-28T10:17:58.547Z,66.80
2018-03-28T10:20:26.133Z,66.80
2018-03-28T10:22:54.492Z,66.80
2018-03-28T10:25:22.297Z,66.80
2018-03-28T10:27:49.869Z,66.90
2018-03-28T10:30:17.496Z,66.90
2018-03-28T10:32:45.166Z,67.00
2018-03-28T10:35:13.570Z,67.00
2018-03-28T10:37:41.889Z,67.10
2018-03-28T10:40:09.469Z,67.10
2018-03-28T10:42:37.046Z,67.00
2018-03-28T10:45:05.426Z,67.20
2018-03-28T10:47:33.921Z,67.20
2018-03-28T10:50:01.574Z,67.20
2018-03-28T10:52:29.935Z,67.10
2018-03-28T10:54:57.524Z,67.10
2018-03-28T10:57:25.866Z,67.10
2018-03-28T10:59:54.586Z,67.10
2018-03-28T11:02:23.170Z,66.80
2018-03-28T11:04:51.524Z,66.90
2018-03-28T11:07:19.216Z,66.80
2018-03-28T11:09:47.585Z,66.60
2018-03-28T11:12:15.930Z,66.50
2018-03-28T11:14:43.532Z,66.50
2018-03-28T11:17:11.869Z,66.50
2018-03-28T11:19:39.464Z,66.40
2018-03-28T11:22:07.806Z,66.50
2018-03-28T11:24:35.386Z,66.40
2018-03-28T11:27:02.960Z,66.40
2018-03-28T11:29:30.526Z,66.40
2018-03-28T11:31:58.867Z,66.30
2018-03-28T11:34:26.459Z,66.30
2018-03-28T11:36:54.330Z,66.30
2018-03-28T11:39:21.990Z,67.10
2018-03-28T11:41:49.566Z,66.30
2018-03-28T11:44:17.897Z,66.30
2018-03-28T11:46:45.491Z,66.30
2018-03-28T11:49:13.837Z,67.20
2018-03-28T11:51:41.401Z,66.20
2018-03-28T11:54:09.018Z,66.30
2018-03-28T11:56:36.605Z,66.20
2018-03-28T11:59:04.235Z,66.30
2018-03-28T12:01:34.571Z,66.30
2018-03-28T12:04:02.169Z,66.30
2018-03-28T12:06:29.773Z,66.30
2018-03-28T12:08:58.123Z,66.30
2018-03-28T12:11:25.713Z,66.30
2018-03-28T12:13:54.713Z,66.10
2018-03-28T12:16:23.159Z,66.10
2018-03-28T12:18:50.733Z,66.10
2018-03-28T12:21:18.410Z,66.10
2018-03-28T12:23:46.797Z,66.10
2018-03-28T12:26:15.128Z,66.10
2018-03-28T12:28:42.729Z,66.10
2018-03-28T12:31:11.064Z,66.80
2018-03-28T12:33:38.638Z,66.10
2018-03-28T12:36:06.231Z,66.10
2018-03-28T12:38:33.899Z,66.20
2018-03-28T12:41:02.243Z,66.20
2018-03-28T12:43:30.178Z,66.20
2018-03-28T12:45:57.839Z,66.10
2018-03-28T12:48:25.469Z,66.20
2018-03-28T12:50:54.134Z,66.30
2018-03-28T12:53:23.727Z,66.20
2018-03-28T12:55:51.334Z,67.00
2018-03-28T12:58:19.678Z,66.30
2018-03-28T13:00:47.370Z,66.30
2018-03-28T13:03:15.720Z,66.30
2018-03-28T13:05:43.315Z,66.30
2018-03-28T13:08:11.667Z,66.20
2018-03-28T13:10:39.236Z,66.30
2018-03-28T13:13:06.815Z,66.10
2018-03-28T13:15:35.157Z,66.40
2018-03-28T13:18:02.810Z,66.30
2018-03-28T13:20:30.414Z,66.20
2018-03-28T13:22:58.772Z,66.30
2018-03-28T13:25:26.451Z,66.30
2018-03-28T13:27:54.535Z,66.40
2018-03-28T13:30:24.202Z,66.40
2018-03-28T13:32:51.812Z,66.50
2018-03-28T13:35:20.186Z,66.50
2018-03-28T13:37:48.900Z,66.50
2018-03-28T13:40:16.683Z,66.50
2018-03-28T13:42:44.434Z,66.50
2018-03-28T13:45:12.039Z,66.50
2018-03-28T13:47:39.654Z,66.60
2018-03-28T13:50:07.505Z,66.60
2018-03-28T13:52:35.901Z,66.60
2018-03-28T13:55:03.541Z,66.60
2018-03-28T13:57:31.930Z,66.40
2018-03-28T13:59:59.596Z,66.40
2018-03-28T14:02:27.407Z,66.40
2018-03-28T14:04:55.732Z,66.40
2018-03-28T14:07:25.253Z,66.50
2018-03-28T14:09:53.304Z,66.50
2018-03-28T14:12:21.867Z,66.40
2018-03-28T14:14:49.585Z,66.40
2018-03-28T14:17:17.242Z,66.40
2018-03-28T14:19:44.817Z,66.40
2018-03-28T14:22:12.429Z,66.40
2018-03-28T14:24:40.780Z,66.60
2018-03-28T14:27:08.371Z,66.40
2018-03-28T14:29:36.751Z,67.10
2018-03-28T14:32:04.475Z,66.40
2018-03-28T14:34:32.078Z,66.40
2018-03-28T14:36:59.642Z,66.40
2018-03-28T14:39:27.978Z,66.40
2018-03-28T14:41:55.587Z,66.40
2018-03-28T14:44:24.977Z,66.70
2018-03-28T14:46:52.847Z,66.60
2018-03-28T14:49:20.492Z,66.60
2018-03-28T14:51:48.191Z,66.60
2018-03-28T14:54:16.559Z,66.60
2018-03-28T14:56:44.902Z,66.80
2018-03-28T14:59:12.504Z,66.70
2018-03-28T15:01:40.849Z,66.90
2018-03-28T15:04:08.440Z,66.80
2018-03-28T15:06:36.821Z,66.80
2018-03-28T15:09:08.173Z,66.80
2018-03-28T15:11:36.866Z,66.80
2018-03-28T15:14:05.245Z,66.90
2018-03-28T15:16:33.587Z,67.60
2018-03-28T15:19:01.174Z,66.80
2018-03-28T15:21:29.560Z,67.00
2018-03-28T15:23:57.931Z,66.90
2018-03-28T15:26:25.681Z,66.90
2018-03-28T15:28:53.340Z,67.70
2018-03-28T15:31:21.078Z,63.30
2018-03-28T15:33:48.692Z,62.60
2018-03-28T15:36:17.075Z,61.10
2018-03-28T15:38:45.439Z,60.70
2018-03-28T15:41:13.013Z,60.70
2018-03-28T15:43:41.524Z,59.70
2018-03-28T15:46:09.109Z,59.70
2018-03-28T15:48:36.691Z,59.20
2018-03-28T15:51:04.295Z,59.10
2018-03-28T15:53:31.929Z,59.00
2018-03-28T15:55:59.504Z,58.70
2018-03-28T15:58:27.851Z,58.20
2018-03-28T16:00:55.431Z,58.20
2018-03-28T16:03:23.077Z,58.00
2018-03-28T16:05:50.651Z,57.90
2018-03-28T16:08:18.229Z,57.70
2018-03-28T16:10:46.705Z,57.50
2018-03-28T16:13:15.108Z,57.90
2018-03-28T16:15:43.445Z,57.30
2018-03-28T16:18:11.135Z,57.30
2018-03-28T16:20:39.637Z,57.20
2018-03-28T16:23:07.214Z,57.20
2018-03-28T16:25:34.801Z,57.00
2018-03-28T16:28:02.407Z,57.10
2018-03-28T16:30:30.870Z,57.20
2018-03-28T16:32:58.440Z,57.20
2018-03-28T16:35:26.782Z,57.10
2018-03-28T16:37:54.370Z,57.10
2018-03-28T16:40:24.173Z,57.10
2018-03-28T16:42:51.749Z,57.00
2018-03-28T16:45:20.136Z,57.50
2018-03-28T16:47:48.522Z,57.00
2018-03-28T16:50:16.996Z,57.00
2018-03-28T16:52:45.478Z,56.90
2018-03-28T16:55:13.941Z,57.00
2018-03-28T16:57:41.624Z,57.00
2018-03-28T17:00:10.105Z,57.10
2018-03-28T17:02:38.826Z,57.10
2018-03-28T17:05:06.563Z,57.00
2018-03-28T17:07:34.935Z,57.00
2018-03-28T17:10:02.600Z,57.00
2018-03-28T17:12:31.085Z,57.30
2018-03-28T17:14:59.538Z,57.20
2018-03-28T17:17:27.211Z,57.20
2018-03-28T17:19:54.881Z,57.20
2018-03-28T17:22:22.757Z,57.10
2018-03-28T17:24:51.282Z,57.50
2018-03-28T17:27:19.727Z,57.00
2018-03-28T17:29:48.217Z,57.00
2018-03-28T17:32:16.756Z,57.10
2018-03-28T17:34:44.470Z,57.10
2018-03-28T17:37:12.821Z,57.10
2018-03-28T17:39:40.490Z,57.10
2018-03-28T17:42:08.190Z,57.10
2018-03-28T17:44:35.804Z,57.10
2018-03-28T17:47:03.403Z,57.20
2018-03-28T17:49:31.149Z,57.20
2018-03-28T17:51:59.488Z,57.40
2018-03-28T17:54:27.092Z,57.30
2018-03-28T17:56:55.513Z,57.30
2018-03-28T17:59:23.346Z,57.30
2018-03-28T18:01:51.691Z,57.30
2018-03-28T18:04:19.382Z,57.20
2018-03-28T18:06:47.877Z,57.30
2018-03-28T18:09:15.626Z,57.30
2018-03-28T18:11:43.290Z,57.20
2018-03-28T18:14:11.634Z,57.20
2018-03-28T18:16:39.236Z,57.20
2018-03-28T18:19:07.614Z,57.40
2018-03-28T18:21:36.036Z,57.30
2018-03-28T18:24:03.761Z,57.30
2018-03-28T18:26:31.431Z,57.30
2018-03-28T18:28:59.774Z,57.30
2018-03-28T18:31:27.665Z,57.20
2018-03-28T18:33:55.334Z,57.30
2018-03-28T18:36:25.053Z,57.30
2018-03-28T18:38:53.610Z,57.20
2018-03-28T18:41:21.270Z,57.20
2018-03-28T18:43:48.948Z,57.30
2018-03-28T18:46:16.545Z,57.40
2018-03-28T18:48:44.289Z,56.90
2018-03-28T18:51:12.883Z,57.20
2018-03-28T18:53:40.505Z,57.20
2018-03-28T18:56:09.601Z,57.20
2018-03-28T18:58:38.259Z,57.20
2018-03-28T19:01:05.878Z,57.20
2018-03-28T19:03:34.236Z,57.20
2018-03-28T19:06:02.639Z,57.30
2018-03-28T19:08:31.000Z,57.20
2018-03-28T19:10:58.573Z,57.20
2018-03-28T19:13:26.950Z,57.20
2018-03-28T19:15:55.509Z,57.20
2018-03-28T19:18:24.946Z,57.20
2018-03-28T19:20:53.447Z,57.30
2018-03-28T19:23:21.258Z,57.30
2018-03-28T19:25:48.837Z,57.20
2018-03-28T19:28:16.530Z,57.10
2018-03-28T19:30:44.898Z,57.80
2018-03-28T19:33:13.277Z,58.80
2018-03-28T19:35:41.630Z,58.80
2018-03-28T19:38:09.248Z,58.70
2018-03-28T19:40:36.969Z,59.20
2018-03-28T19:43:04.606Z,59.70
2018-03-28T19:45:32.198Z,60.20
2018-03-28T19:47:59.864Z,60.70
2018-03-28T19:50:27.535Z,61.40
2018-03-28T19:52:55.877Z,62.10
2018-03-28T19:55:24.657Z,62.00
2018-03-28T19:57:52.630Z,62.50
2018-03-28T20:00:21.178Z,62.70
2018-03-28T20:02:48.753Z,63.00
2018-03-28T20:05:16.359Z,63.30
2018-03-28T20:07:45.483Z,63.70
2018-03-28T20:10:13.828Z,64.00
2018-03-28T20:12:41.505Z,63.80
2018-03-28T20:15:09.085Z,64.00
2018-03-28T20:17:37.426Z,64.40
2018-03-28T20:20:04.993Z,64.20
2018-03-28T20:22:32.667Z,64.40
2018-03-28T20:25:00.253Z,64.60
2018-03-28T20:27:28.634Z,64.90
2018-03-28T20:29:57.024Z,64.90
2018-03-28T20:32:24.672Z,64.80
2018-03-28T20:34:53.108Z,64.90
2018-03-28T20:37:20.707Z,64.90
2018-03-28T20:39:49.045Z,65.90
2018-03-28T20:42:16.655Z,65.00
2018-03-28T20:47:14.638Z,65.10
2018-03-28T20:49:42.977Z,65.20
2018-03-28T20:52:10.541Z,65.20
2018-03-28T20:54:38.220Z,65.30
2018-03-28T20:57:05.796Z,66.10
2018-03-28T20:59:33.365Z,65.40
2018-03-28T21:02:01.703Z,65.40
2018-03-28T21:04:29.296Z,65.40
2018-03-28T21:06:56.871Z,65.40
2018-03-28T21:09:25.204Z,65.50
2018-03-28T21:11:53.109Z,65.40
2018-03-28T21:14:20.679Z,65.50
2018-03-28T21:16:49.054Z,65.60
2018-03-28T21:19:17.477Z,65.60
2018-03-28T21:21:45.095Z,65.50
2018-03-28T21:24:13.436Z,65.60
2018-03-28T21:26:41.137Z,65.50
2018-03-28T21:29:09.517Z,66.30
2018-03-28T21:31:37.853Z,65.60
2018-03-28T21:34:05.452Z,65.60
2018-03-28T21:36:33.177Z,65.60
2018-03-28T21:39:01.499Z,65.60
2018-03-28T21:41:29.841Z,65.60
2018-03-28T21:43:57.415Z,65.50
2018-03-28T21:46:24.985Z,65.60
2018-03-28T21:48:52.857Z,65.50
2018-03-28T21:51:21.251Z,65.60
2018-03-28T21:53:49.594Z,65.60
2018-03-28T21:56:17.169Z,65.60
2018-03-28T21:58:44.765Z,65.60
2018-03-28T22:01:13.192Z,65.60
2018-03-28T22:03:40.768Z,65.50
2018-03-28T22:06:08.455Z,65.60
2018-03-28T22:08:36.838Z,65.70
2018-03-28T22:11:05.181Z,65.60
2018-03-28T22:13:32.744Z,65.50
2018-03-28T22:16:00.333Z,65.60
2018-03-28T22:18:27.990Z,65.60
2018-03-28T22:20:55.568Z,65.60
2018-03-28T22:23:25.277Z,65.70
2018-03-28T22:25:53.860Z,65.70
2018-03-28T22:28:22.357Z,65.70
2018-03-28T22:30:50.688Z,65.50
2018-03-28T22:33:18.262Z,65.50
2018-03-28T22:35:45.943Z,65.50
2018-03-28T22:38:14.295Z,65.60
2018-03-28T22:40:41.873Z,65.50
2018-03-28T22:43:09.553Z,65.50
2018-03-28T22:45:37.929Z,65.60
2018-03-28T22:48:06.309Z,65.60
2018-03-28T22:50:34.649Z,65.70
2018-03-28T22:53:02.245Z,65.60
2018-03-28T22:55:29.907Z,65.60
2018-03-28T22:57:58.290Z,65.70
2018-03-28T23:00:26.671Z,65.70
2018-03-28T23:02:55.002Z,65.70
2018-03-28T23:05:22.906Z,65.70
2018-03-28T23:07:50.578Z,65.50
2018-03-28T23:10:18.241Z,65.50
2018-03-28T23:12:46.627Z,65.60
2018-03-28T23:15:15.000Z,65.60
2018-03-28T23:17:43.359Z,65.60
2018-03-28T23:20:10.947Z,65.60
2018-03-28T23:22:39.285Z,65.60
2018-03-28T23:25:06.864Z,65.60
2018-03-28T23:27:34.459Z,65.60
2018-03-28T23:30:02.035Z,65.60
2018-03-28T23:32:29.635Z,65.60
2018-03-28T23:34:57.210Z,65.60
2018-03-28T23:37:25.543Z,65.70
2018-03-28T23:39:53.228Z,65.60
2018-03-28T23:42:20.878Z,65.50
2018-03-28T23:44:49.277Z,65.60
2018-03-28T23:47:16.875Z,65.60
2018-03-28T23:49:45.263Z,65.60
2018-03-28T23:52:13.641Z,65.50
2018-03-28T23:54:41.980Z,66.40
2018-03-28T23:57:09.554Z,65.60
2018-03-28T23:59:37.140Z,65.50
